createdAt,value
2022-09-12T00:01:12.894Z,77.10
2022-09-12T00:03:40.281Z,77.10
2022-09-12T00:06:22.617Z,77.20
2022-09-12T00:08:50.320Z,77.30
2022-09-12T00:11:16.938Z,77.40
2022-09-12T00:13:43.916Z,77.40
2022-09-12T00:16:21.905Z,77.60
2022-09-12T00:18:49.171Z,77.60
2022-09-12T00:21:17.493Z,77.70
2022-09-12T00:23:44.758Z,77.70
2022-09-12T00:26:11.499Z,77.70
2022-09-12T00:28:39.569Z,77.80
2022-09-12T00:31:09.533Z,77.80
2022-09-12T00:33:36.687Z,77.80
2022-09-12T00:36:16.337Z,77.80
2022-09-12T00:38:44.458Z,77.90
2022-09-12T00:41:17.720Z,78.10
2022-09-12T00:43:47.758Z,78.00
2022-09-12T00:46:19.207Z,78.00
2022-09-12T00:48:52.508Z,78.00
2022-09-12T00:51:19.934Z,78.10
2022-09-12T00:53:50.038Z,78.00
2022-09-12T00:56:18.745Z,78.10
2022-09-12T00:59:04.024Z,78.10
2022-09-12T01:01:32.755Z,78.10
2022-09-12T01:04:00.213Z,78.20
2022-09-12T01:06:35.243Z,78.10
2022-09-12T01:09:04.442Z,78.20
2022-09-12T01:11:39.060Z,78.10
2022-09-12T01:14:07.279Z,78.10
2022-09-12T01:16:37.861Z,78.10
2022-09-12T01:19:33.113Z,78.10
2022-09-12T01:22:18.518Z,78.20
2022-09-12T01:25:10.092Z,78.20
2022-09-12T01:27:53.449Z,78.20
2022-09-12T01:30:45.453Z,78.30
2022-09-12T01:33:17.769Z,78.20
2022-09-12T01:36:02.963Z,78.30
2022-09-12T01:38:46.919Z,78.20
2022-09-12T01:41:16.679Z,78.30
2022-09-12T01:43:48.061Z,78.40
2022-09-12T01:46:19.321Z,78.60
2022-09-12T01:48:59.138Z,78.60
2022-09-12T01:51:29.758Z,78.60
2022-09-12T01:54:10.282Z,78.70
2022-09-12T01:56:40.736Z,78.70
2022-09-12T01:59:37.098Z,78.80
2022-09-12T02:02:06.270Z,78.80
2022-09-12T02:04:52.952Z,78.90
2022-09-12T02:07:41.848Z,78.90
2022-09-12T02:10:08.635Z,78.90
2022-09-12T02:12:58.033Z,79.10
2022-09-12T02:15:30.085Z,79.20
2022-09-12T02:18:01.038Z,79.20
2022-09-12T02:20:54.638Z,79.30
2022-09-12T02:23:25.435Z,79.40
2022-09-12T02:25:57.747Z,79.60
2022-09-12T02:28:31.914Z,79.60
2022-09-12T02:31:10.435Z,79.50
2022-09-12T02:33:53.243Z,79.60
2022-09-12T02:36:40.010Z,79.80
2022-09-12T02:39:06.819Z,79.70
2022-09-12T02:41:33.641Z,79.60
2022-09-12T02:44:00.501Z,79.60
2022-09-12T02:46:40.777Z,79.50
2022-09-12T02:49:09.425Z,79.50
2022-09-12T02:51:37.049Z,79.50
2022-09-12T02:54:06.425Z,79.40
2022-09-12T02:56:33.440Z,79.50
2022-09-12T02:59:06.760Z,79.50
2022-09-12T03:01:33.406Z,79.40
2022-09-12T03:04:21.782Z,79.40
2022-09-12T03:07:13.008Z,79.40
2022-09-12T03:10:14.980Z,79.40
2022-09-12T03:13:03.297Z,79.40
2022-09-12T03:15:41.927Z,79.40
2022-09-12T03:18:38.399Z,79.40
2022-09-12T03:21:19.326Z,79.40
2022-09-12T03:24:13.699Z,79.50
2022-09-12T03:26:43.239Z,79.50
2022-09-12T03:29:11.583Z,79.50
2022-09-12T03:31:47.615Z,79.60
2022-09-12T03:34:14.330Z,79.70
2022-09-12T03:36:41.697Z,79.60
2022-09-12T03:39:08.306Z,79.70
2022-09-12T03:41:34.929Z,79.70
2022-09-12T03:44:01.795Z,79.70
2022-09-12T03:46:28.433Z,79.70
2022-09-12T03:48:55.068Z,79.70
2022-09-12T03:51:22.118Z,79.70
2022-09-12T03:53:48.781Z,79.80
2022-09-12T03:56:15.436Z,79.90
2022-09-12T03:58:42.538Z,80.00
2022-09-12T04:01:12.748Z,80.10
2022-09-12T04:03:43.841Z,80.20
2022-09-12T04:06:12.049Z,80.30
2022-09-12T04:08:38.961Z,80.40
2022-09-12T04:11:10.580Z,80.40
2022-09-12T04:13:38.555Z,80.50
2022-09-12T04:16:05.970Z,80.50
2022-09-12T04:18:33.060Z,80.50
2022-09-12T04:21:07.596Z,80.50
2022-09-12T04:23:34.813Z,80.50
2022-09-12T04:26:03.141Z,80.50
2022-09-12T04:28:30.447Z,80.70
2022-09-12T04:31:02.846Z,80.80
2022-09-12T04:33:29.581Z,80.90
2022-09-12T04:35:56.284Z,80.90
2022-09-12T04:38:22.907Z,81.00
2022-09-12T04:40:49.533Z,81.00
2022-09-12T04:43:16.582Z,81.10
2022-09-12T04:45:43.247Z,81.10
2022-09-12T04:48:09.925Z,81.30
2022-09-12T04:50:36.610Z,81.40
2022-09-12T04:53:03.336Z,81.40
2022-09-12T04:55:30.083Z,81.40
2022-09-12T04:57:56.712Z,81.60
2022-09-12T05:00:23.388Z,81.60
2022-09-12T05:02:50.141Z,81.60
2022-09-12T05:05:17.346Z,81.60
2022-09-12T05:07:44.048Z,81.60
2022-09-12T05:10:10.777Z,81.70
2022-09-12T05:12:37.430Z,81.80
2022-09-12T05:15:04.712Z,81.70
2022-09-12T05:17:31.341Z,81.70
2022-09-12T05:19:57.978Z,81.70
2022-09-12T05:22:25.134Z,81.70
2022-09-12T05:24:51.779Z,81.60
2022-09-12T05:27:18.455Z,81.70
2022-09-12T05:29:45.193Z,81.80
2022-09-12T05:32:12.515Z,81.90
2022-09-12T05:34:40.141Z,81.90
2022-09-12T05:37:06.965Z,81.90
2022-09-12T05:39:33.738Z,81.90
2022-09-12T05:42:00.392Z,81.90
2022-09-12T05:44:27.109Z,81.90
2022-09-12T05:46:53.786Z,81.90
2022-09-12T05:49:21.492Z,81.90
2022-09-12T05:51:48.133Z,81.90
2022-09-12T05:54:18.740Z,81.80
2022-09-12T05:56:45.692Z,82.60
2022-09-12T05:59:15.244Z,81.80
2022-09-12T06:01:42.405Z,81.90
2022-09-12T06:04:09.560Z,81.90
2022-09-12T06:06:47.007Z,81.90
2022-09-12T06:09:16.117Z,81.90
2022-09-12T06:11:42.987Z,81.90
2022-09-12T06:14:12.766Z,82.00
2022-09-12T06:16:39.872Z,82.00
2022-09-12T06:19:12.545Z,82.10
2022-09-12T06:21:39.817Z,82.10
2022-09-12T06:24:07.517Z,82.10
2022-09-12T06:26:34.851Z,82.20
2022-09-12T06:29:02.290Z,82.20
2022-09-12T06:31:31.569Z,82.20
2022-09-12T06:34:01.196Z,82.20
2022-09-12T06:36:30.967Z,82.20
2022-09-12T06:39:03.639Z,82.30
2022-09-12T06:41:31.622Z,82.40
2022-09-12T06:43:59.093Z,82.50
2022-09-12T06:46:26.605Z,83.40
2022-09-12T06:48:55.457Z,82.70
2022-09-12T06:51:22.211Z,82.90
2022-09-12T06:53:49.550Z,83.00
2022-09-12T06:56:21.644Z,83.10
2022-09-12T06:58:50.432Z,83.30
2022-09-12T07:01:21.683Z,83.30
2022-09-12T07:03:53.893Z,83.40
2022-09-12T07:06:24.157Z,83.60
2022-09-12T07:08:50.955Z,83.60
2022-09-12T07:11:24.035Z,83.60
2022-09-12T07:13:52.717Z,83.60
2022-09-12T07:16:20.311Z,83.70
2022-09-12T07:18:58.195Z,83.70
2022-09-12T07:21:25.205Z,83.70
2022-09-12T07:23:52.049Z,83.70
2022-09-12T07:26:18.983Z,83.70
2022-09-12T07:28:45.696Z,83.60
2022-09-12T07:31:18.313Z,83.60
2022-09-12T07:33:45.265Z,83.70
2022-09-12T07:36:14.561Z,83.80
2022-09-12T07:38:42.382Z,83.80
2022-09-12T07:41:19.149Z,83.80
2022-09-12T07:43:46.044Z,83.80
2022-09-12T07:46:14.228Z,83.80
2022-09-12T07:48:41.237Z,83.50
2022-09-12T07:51:10.789Z,83.50
2022-09-12T07:53:39.954Z,83.50
2022-09-12T07:56:08.463Z,83.40
2022-09-12T07:58:36.577Z,83.40
2022-09-12T08:01:15.811Z,83.30
2022-09-12T08:03:45.002Z,83.30
2022-09-12T08:06:17.367Z,83.40
2022-09-12T08:08:44.016Z,83.40
2022-09-12T08:11:13.607Z,83.40
2022-09-12T08:13:41.850Z,83.40
2022-09-12T08:16:17.953Z,83.30
2022-09-12T08:18:44.946Z,83.20
2022-09-12T08:21:20.019Z,83.10
2022-09-12T08:23:47.244Z,82.90
2022-09-12T08:26:14.067Z,82.80
2022-09-12T08:28:45.620Z,82.40
2022-09-12T08:31:15.232Z,82.30
2022-09-12T08:33:42.171Z,82.00
2022-09-12T08:36:22.557Z,81.90
2022-09-12T08:38:50.664Z,81.60
2022-09-12T08:41:47.731Z,81.50
2022-09-12T08:44:25.946Z,81.30
2022-09-12T08:47:10.302Z,81.00
2022-09-12T08:49:54.470Z,80.90
2022-09-12T08:52:30.871Z,80.80
2022-09-12T08:54:57.712Z,80.80
2022-09-12T08:57:24.803Z,80.50
2022-09-12T08:59:52.925Z,80.40
2022-09-12T09:02:41.430Z,80.10
2022-09-12T09:05:15.040Z,79.70
2022-09-12T09:08:10.650Z,79.50
2022-09-12T09:10:52.894Z,79.60
2022-09-12T09:13:53.442Z,79.40
2022-09-12T09:16:30.622Z,79.10
2022-09-12T09:19:05.506Z,78.60
2022-09-12T09:21:34.851Z,78.50
2022-09-12T09:24:06.472Z,78.40
2022-09-12T09:27:00.700Z,78.30
2022-09-12T09:29:34.634Z,77.60
2022-09-12T09:32:09.480Z,77.50
2022-09-12T09:34:36.184Z,77.10
2022-09-12T09:37:36.162Z,77.10
2022-09-12T09:40:15.622Z,77.20
2022-09-12T09:43:00.540Z,76.70
2022-09-12T09:45:30.116Z,76.50
2022-09-12T09:48:09.946Z,76.20
2022-09-12T09:50:37.820Z,75.80
2022-09-12T09:53:07.334Z,75.70
2022-09-12T09:55:42.984Z,75.00
2022-09-12T09:58:09.684Z,75.00
2022-09-12T10:00:38.151Z,74.90
2022-09-12T10:03:37.093Z,74.50
2022-09-12T10:06:23.639Z,74.00
2022-09-12T10:08:50.857Z,74.20
2022-09-12T10:11:23.244Z,73.60
2022-09-12T10:13:59.931Z,73.50
2022-09-12T10:16:28.156Z,73.30
2022-09-12T10:19:00.607Z,73.30
2022-09-12T10:21:30.392Z,72.50
2022-09-12T10:24:13.479Z,72.80
2022-09-12T10:26:41.794Z,72.70
2022-09-12T10:29:18.890Z,72.50
2022-09-12T10:31:51.253Z,71.80
2022-09-12T10:34:25.972Z,71.90
2022-09-12T10:36:58.839Z,71.80
2022-09-12T10:39:26.132Z,71.30
2022-09-12T10:41:52.792Z,70.80
2022-09-12T10:44:27.315Z,70.70
2022-09-12T10:46:54.603Z,70.20
2022-09-12T10:49:37.904Z,70.10
2022-09-12T10:52:25.047Z,68.60
2022-09-12T10:54:51.916Z,68.70
2022-09-12T10:57:43.925Z,68.40
2022-09-12T11:00:20.459Z,68.00
2022-09-12T11:03:15.245Z,67.20
2022-09-12T11:05:57.794Z,67.30
2022-09-12T11:08:34.080Z,67.20
2022-09-12T11:11:04.070Z,66.50
2022-09-12T11:13:45.746Z,66.80
2022-09-12T11:16:27.290Z,66.40
2022-09-12T11:19:04.035Z,65.70
2022-09-12T11:21:38.426Z,65.40
2022-09-12T11:24:23.161Z,66.00
2022-09-12T11:27:08.277Z,65.50
2022-09-12T11:29:47.273Z,65.10
2022-09-12T11:32:32.180Z,64.90
2022-09-12T11:35:31.548Z,63.50
2022-09-12T11:38:05.075Z,63.40
2022-09-12T11:40:40.668Z,63.90
2022-09-12T11:43:26.227Z,63.60
2022-09-12T11:45:53.657Z,62.80
2022-09-12T11:48:40.021Z,63.70
2022-09-12T11:51:18.222Z,63.70
2022-09-12T11:53:50.549Z,63.20
2022-09-12T11:56:18.635Z,62.50
2022-09-12T11:58:54.580Z,62.10
2022-09-12T12:01:28.610Z,62.30
2022-09-12T12:03:57.023Z,63.80
2022-09-12T12:06:39.986Z,63.20
2022-09-12T12:09:06.676Z,63.00
2022-09-12T12:11:41.872Z,62.50
2022-09-12T12:14:35.753Z,61.40
2022-09-12T12:17:02.587Z,61.80
2022-09-12T12:19:37.627Z,62.50
2022-09-12T12:22:24.732Z,62.30
2022-09-12T12:25:07.464Z,60.60
2022-09-12T12:27:51.332Z,60.70
2022-09-12T12:30:30.402Z,59.20
2022-09-12T12:33:27.253Z,58.90
2022-09-12T12:35:59.835Z,58.80
2022-09-12T12:38:30.805Z,59.80
2022-09-12T12:41:19.321Z,60.10
2022-09-12T12:43:54.710Z,58.90
2022-09-12T12:46:31.151Z,58.90
2022-09-12T12:49:17.345Z,59.20
2022-09-12T12:51:58.880Z,58.80
2022-09-12T12:54:42.194Z,57.30
2022-09-12T12:57:39.379Z,56.90
2022-09-12T13:00:25.981Z,57.70
2022-09-12T13:03:06.551Z,57.80
2022-09-12T13:05:46.033Z,57.80
2022-09-12T13:08:18.785Z,56.70
2022-09-12T13:11:07.428Z,56.00
2022-09-12T13:13:49.743Z,56.20
2022-09-12T13:16:37.843Z,57.30
2022-09-12T13:19:20.273Z,56.40
2022-09-12T13:22:16.097Z,56.50
2022-09-12T13:24:44.786Z,56.20
2022-09-12T13:27:18.977Z,57.00
2022-09-12T13:29:45.857Z,57.00
2022-09-12T13:32:12.788Z,56.60
2022-09-12T13:35:00.131Z,56.30
2022-09-12T13:37:26.705Z,55.70
2022-09-12T13:40:08.308Z,56.20
2022-09-12T13:42:53.229Z,56.30
2022-09-12T13:45:21.789Z,55.40
2022-09-12T13:47:57.883Z,55.40
2022-09-12T13:50:39.476Z,56.10
2022-09-12T13:53:12.108Z,56.00
2022-09-12T13:55:46.163Z,55.80
2022-09-12T13:58:22.914Z,54.90
2022-09-12T14:01:22.522Z,53.70
2022-09-12T14:04:13.247Z,53.90
2022-09-12T14:06:49.662Z,53.70
2022-09-12T14:09:25.233Z,52.50
2022-09-12T14:11:52.761Z,52.00
2022-09-12T14:14:34.190Z,51.60
2022-09-12T14:17:01.078Z,51.00
2022-09-12T14:19:29.122Z,51.70
2022-09-12T14:21:57.215Z,50.00
2022-09-12T14:24:24.420Z,48.10
2022-09-12T14:26:54.158Z,47.00
2022-09-12T14:29:21.529Z,47.40
2022-09-12T14:32:01.641Z,47.10
2022-09-12T14:34:28.435Z,48.80
2022-09-12T14:36:57.176Z,48.70
2022-09-12T14:39:31.666Z,48.70
2022-09-12T14:42:14.319Z,48.30
2022-09-12T14:44:50.149Z,47.20
2022-09-12T14:47:24.887Z,48.80
2022-09-12T14:49:52.247Z,47.40
2022-09-12T14:52:26.161Z,47.80
2022-09-12T14:55:18.656Z,48.30
2022-09-12T14:57:47.865Z,46.90
2022-09-12T15:00:20.914Z,48.00
2022-09-12T15:02:49.182Z,48.10
2022-09-12T15:05:20.739Z,46.50
2022-09-12T15:07:56.798Z,46.70
2022-09-12T15:10:33.977Z,47.00
2022-09-12T15:13:11.838Z,46.50
2022-09-12T15:15:40.188Z,46.30
2022-09-12T15:18:07.190Z,47.10
2022-09-12T15:20:38.936Z,47.70
2022-09-12T15:23:12.126Z,47.20
2022-09-12T15:25:38.817Z,47.80
2022-09-12T15:28:20.938Z,48.40
2022-09-12T15:30:50.501Z,48.00
2022-09-12T15:33:19.572Z,48.90
2022-09-12T15:35:46.444Z,48.80
2022-09-12T15:38:13.174Z,49.20
2022-09-12T15:40:40.174Z,49.40
2022-09-12T15:43:07.068Z,49.40
2022-09-12T15:45:35.361Z,49.90
2022-09-12T15:48:03.326Z,49.00
2022-09-12T15:50:30.504Z,49.00
2022-09-12T15:52:57.601Z,49.60
2022-09-12T15:55:30.197Z,49.30
2022-09-12T15:57:56.794Z,48.40
2022-09-12T16:00:23.795Z,46.70
2022-09-12T16:02:52.955Z,46.80
2022-09-12T16:05:23.250Z,46.30
2022-09-12T16:07:53.324Z,46.60
2022-09-12T16:10:23.978Z,46.80
2022-09-12T16:12:51.366Z,47.30
2022-09-12T16:15:20.826Z,46.50
2022-09-12T16:17:47.944Z,46.50
2022-09-12T16:20:14.888Z,46.80
2022-09-12T16:22:42.409Z,47.50
2022-09-12T16:25:09.548Z,47.20
2022-09-12T16:27:37.481Z,47.70
2022-09-12T16:30:06.163Z,48.80
2022-09-12T16:32:33.417Z,48.80
2022-09-12T16:35:00.401Z,49.40
2022-09-12T16:37:27.360Z,49.00
2022-09-12T16:39:54.082Z,48.70
2022-09-12T16:42:20.811Z,48.40
2022-09-12T16:44:47.670Z,48.50
2022-09-12T16:47:15.098Z,48.60
2022-09-12T16:49:41.746Z,48.60
2022-09-12T16:52:08.657Z,49.30
2022-09-12T16:54:35.398Z,49.60
2022-09-12T16:57:05.062Z,50.20
2022-09-12T16:59:32.100Z,50.70
2022-09-12T17:01:58.858Z,51.00
2022-09-12T17:04:25.637Z,51.40
2022-09-12T17:06:52.331Z,52.00
2022-09-12T17:09:19.116Z,52.30
2022-09-12T17:11:50.276Z,52.90
2022-09-12T17:14:17.169Z,53.40
2022-09-12T17:16:50.737Z,53.60
2022-09-12T17:19:22.076Z,53.90
2022-09-12T17:21:49.967Z,53.90
2022-09-12T17:24:17.729Z,54.20
2022-09-12T17:26:45.049Z,54.40
2022-09-12T17:29:15.787Z,54.60
2022-09-12T17:31:44.054Z,55.00
2022-09-12T17:34:14.313Z,55.50
2022-09-12T17:36:44.187Z,55.80
2022-09-12T17:39:11.902Z,56.00
2022-09-12T17:41:38.838Z,56.30
2022-09-12T17:44:07.555Z,56.50
2022-09-12T17:46:38.386Z,56.80
2022-09-12T17:49:08.090Z,56.90
2022-09-12T17:51:35.221Z,57.10
2022-09-12T17:54:04.616Z,57.40
2022-09-12T17:56:33.006Z,57.50
2022-09-12T17:59:00.317Z,57.70
2022-09-12T18:01:46.354Z,58.10
2022-09-12T18:04:13.637Z,58.50
2022-09-12T18:06:40.920Z,58.90
2022-09-12T18:09:09.535Z,59.10
2022-09-12T18:11:36.499Z,59.40
2022-09-12T18:14:03.121Z,59.60
2022-09-12T18:16:31.364Z,59.70
2022-09-12T18:19:01.480Z,59.90
2022-09-12T18:21:28.948Z,60.20
2022-09-12T18:23:58.872Z,60.30
2022-09-12T18:26:27.146Z,60.40
2022-09-12T18:28:54.229Z,60.70
2022-09-12T18:31:24.432Z,61.00
2022-09-12T18:33:51.601Z,61.10
2022-09-12T18:36:19.367Z,61.30
2022-09-12T18:38:46.128Z,61.50
2022-09-12T18:41:14.876Z,61.70
2022-09-12T18:43:42.147Z,61.90
2022-09-12T18:46:15.969Z,62.10
2022-09-12T18:48:43.189Z,62.30
2022-09-12T18:51:15.024Z,62.50
2022-09-12T18:53:42.742Z,62.60
2022-09-12T18:56:12.054Z,62.90
2022-09-12T18:58:40.674Z,63.00
2022-09-12T19:01:15.998Z,63.20
2022-09-12T19:03:43.508Z,63.40
2022-09-12T19:06:21.708Z,63.50
2022-09-12T19:08:50.165Z,63.60
2022-09-12T19:11:17.847Z,63.80
2022-09-12T19:13:46.119Z,63.90
2022-09-12T19:16:16.712Z,64.10
2022-09-12T19:18:43.672Z,64.50
2022-09-12T19:21:22.429Z,64.50
2022-09-12T19:23:50.046Z,64.70
2022-09-12T19:26:18.138Z,65.00
2022-09-12T19:28:45.300Z,65.10
2022-09-12T19:31:15.125Z,65.10
2022-09-12T19:33:42.831Z,65.20
2022-09-12T19:36:33.697Z,65.30
2022-09-12T19:39:00.112Z,65.40
2022-09-12T19:41:26.848Z,65.70
2022-09-12T19:43:55.685Z,65.70
2022-09-12T19:46:24.165Z,65.90
2022-09-12T19:48:52.371Z,66.10
2022-09-12T19:51:20.835Z,66.20
2022-09-12T19:53:47.796Z,66.20
2022-09-12T19:56:14.936Z,66.30
2022-09-12T19:58:46.635Z,66.50
2022-09-12T20:01:17.520Z,66.60
2022-09-12T20:03:44.840Z,66.70
2022-09-12T20:06:13.906Z,66.80
2022-09-12T20:08:44.620Z,66.90
2022-09-12T20:11:14.013Z,67.00
2022-09-12T20:13:41.374Z,67.30
2022-09-12T20:16:29.213Z,67.40
2022-09-12T20:19:01.735Z,67.50
2022-09-12T20:21:34.164Z,67.60
2022-09-12T20:24:07.253Z,67.60
2022-09-12T20:26:34.132Z,67.60
2022-09-12T20:29:01.341Z,67.60
2022-09-12T20:31:28.565Z,67.60
2022-09-12T20:33:55.553Z,67.60
2022-09-12T20:36:22.933Z,67.70
2022-09-12T20:38:59.878Z,67.70
2022-09-12T20:41:28.526Z,68.00
2022-09-12T20:43:56.881Z,68.00
2022-09-12T20:46:24.928Z,68.00
2022-09-12T20:48:52.259Z,68.20
2022-09-12T20:51:24.548Z,68.30
2022-09-12T20:53:58.093Z,68.40
2022-09-12T20:56:26.580Z,68.60
2022-09-12T20:58:54.201Z,68.50
2022-09-12T21:01:21.713Z,68.50
2022-09-12T21:03:48.758Z,68.60
2022-09-12T21:06:19.289Z,68.70
2022-09-12T21:08:47.489Z,68.80
2022-09-12T21:11:16.895Z,68.80
2022-09-12T21:13:43.913Z,68.80
2022-09-12T21:16:16.816Z,68.80
2022-09-12T21:18:43.973Z,69.00
2022-09-12T21:21:15.044Z,69.10
2022-09-12T21:23:42.301Z,69.30
2022-09-12T21:26:09.026Z,69.40
2022-09-12T21:28:35.746Z,69.40
2022-09-12T21:31:02.525Z,69.50
2022-09-12T21:33:29.283Z,69.50
2022-09-12T21:36:00.594Z,69.50
2022-09-12T21:38:27.218Z,69.60
2022-09-12T21:41:06.455Z,69.60
2022-09-12T21:43:33.305Z,69.60
2022-09-12T21:46:00.999Z,69.70
2022-09-12T21:48:28.285Z,69.70
2022-09-12T21:50:55.041Z,69.90
2022-09-12T21:53:21.733Z,69.90
2022-09-12T21:55:48.600Z,69.90
2022-09-12T21:58:15.276Z,70.00
2022-09-12T22:00:42.368Z,70.00
2022-09-12T22:03:10.362Z,70.00
2022-09-12T22:05:40.054Z,70.00
2022-09-12T22:08:07.898Z,70.10
2022-09-12T22:10:34.793Z,70.20
2022-09-12T22:13:01.669Z,70.30
2022-09-12T22:15:43.842Z,70.40
2022-09-12T22:18:11.412Z,70.40
2022-09-12T22:20:38.037Z,70.40
2022-09-12T22:23:24.950Z,70.40
2022-09-12T22:25:55.086Z,70.40
2022-09-12T22:28:22.505Z,70.50
2022-09-12T22:30:49.248Z,70.60
2022-09-12T22:33:15.941Z,70.60
2022-09-12T22:35:42.580Z,70.70
2022-09-12T22:38:09.353Z,70.60
2022-09-12T22:40:35.997Z,70.70
2022-09-12T22:43:02.751Z,70.70
2022-09-12T22:45:29.378Z,70.80
2022-09-12T22:48:00.411Z,70.80
2022-09-12T22:50:27.584Z,70.80
2022-09-12T22:52:54.219Z,70.80
2022-09-12T22:55:20.856Z,70.90
2022-09-12T22:57:47.650Z,71.20
2022-09-12T23:00:14.993Z,71.20
2022-09-12T23:02:41.656Z,71.00
2022-09-12T23:05:08.613Z,71.10
2022-09-12T23:07:35.614Z,71.20
2022-09-12T23:10:02.246Z,71.20
2022-09-12T23:12:28.970Z,71.30
2022-09-12T23:14:55.574Z,71.40
2022-09-12T23:17:22.217Z,71.50
2022-09-12T23:19:48.900Z,71.50
2022-09-12T23:22:15.495Z,71.60
2022-09-12T23:24:42.130Z,71.60
2022-09-12T23:27:08.926Z,71.60
2022-09-12T23:29:35.629Z,71.70
2022-09-12T23:32:05.756Z,71.70
2022-09-12T23:34:33.531Z,71.80
2022-09-12T23:37:00.161Z,71.90
2022-09-12T23:39:26.899Z,71.90
2022-09-12T23:41:53.593Z,72.00
2022-09-12T23:44:20.219Z,72.30
2022-09-12T23:46:46.815Z,72.20
2022-09-12T23:49:13.541Z,72.40
2022-09-12T23:51:40.140Z,72.50
2022-09-12T23:54:06.924Z,72.50
2022-09-12T23:56:33.676Z,72.60
2022-09-12T23:59:00.361Z,72.60
